Terminal Aerodrome Forecast
Issued by NWS Medford, OR

Home | Current Version | Previous Version | Text Only | Print | Product List | Glossary On
Versions: 1 2 3 4 5 6 7 8 9 10 11 12 13 14
864
FTUS46 KMFR 251736
TAFMFR
TAF
KMFR 251736Z 2518/2618 VRB03KT P6SM SKC
     FM252200 33010G18KT P6SM SKC
     FM260400 VRB03KT P6SM SKC=

USA.gov is the U.S. government's official web portal to all federal, state and local government web resources and services.